AirNav   Pilot Hours Calculator
 
 1056 users online  

1TS0 Eagle Air Airport
Oak Island, Texas, USA

GOING TO OAK ISLAND?


FAA INFORMATION EFFECTIVE 22 APRIL 2021

Location

FAA Identifier: 1TS0
Lat/Long: 29-40-13.8120N 094-40-14.7030W
29-40.230200N 094-40.245050W
29.6705033,-94.6707508
(estimated)
Elevation: 8 ft. / 2 m (estimated)
Variation: 05E (1985)
Time zone: UTC -5 (UTC -6 during Standard Time)
Zip code: 77514

Airport Operations

Airport use: CLOSED INDEFINITELY
Activation date: 10/1984
Control tower: no
ARTCC: HOUSTON CENTER
FSS: MONTGOMERY COUNTY FLIGHT SERVICE STATION
Attendance: CONTINUOUS
Segmented circle: no

Nearby radio navigation aids

VOR radial/distance  VOR name  Freq  Var
MHFr021/8.5TRINITY VOR/DME113.6007E
VUHr017/26.2SCHOLES VOR/DME113.0006E
DASr177/31.2DAISETTA VORTAC116.9005E
SBIr261/33.0SABINE PASS VOR/DME115.4007E
BPTr237/37.9BEAUMONT VOR/DME114.5007E
IAHr111/39.1HUMBLE VORTAC116.6005E

 
NDB name  Hdg/Dist  Freq  Var  ID
GOODHUE218/33.936807EGDE --. -.. .

Airport Services

Runway Information

Runway E/W

Dimensions: 2300 x 60 ft. / 701 x 18 m
Surface: turf
RUNWAY E  RUNWAY W
Traffic pattern: leftleft
Obstructions: 35 ft. plines, 90 ft. from runwaynone

Airport Ownership and Management from official FAA records

Ownership: Privately-owned
Owner: J L STECGALL
BOX 627
ANAHUAC, TX 77514
Phone 713-471-2496
Manager: J L STECGALL
BOX 627
ANAHUAC, TX 77514
Phone 713-471-2496

Airport Operational Statistics

Aircraft based on the field: 1
Single engine airplanes: 1
    

Additional Remarks

FOR CD CTC HOUSTON ARTCC AT 281-230-5622.
(ARPT STATUS) ARPT CLSD INDEFLY.

Instrument Procedures

There are no published instrument procedures at 1TS0.

Some nearby airports with instrument procedures:

T00 - Chambers County Airport (6 nm N)
54T - RWJ Airpark (11 nm NW)
KHPY - Baytown Airport (16 nm NW)
T41 - La Porte Municipal Airport (21 nm W)
T78 - Liberty Municipal Airport (24 nm N)
 
Loc | Ops | Rwys | IFR | FBO | Links
Com | Nav | Svcs | Stats | Notes
Area around 1TS0 (Eagle Air Airport)
 
Road maps at: MapQuest Bing Google
 
Aerial photo
No photo
 
Sectional chart

 
Airport distance calculator
Flying to Eagle Air Airport? Find the distance to fly.

From to 1TS0

Sunrise and sunset
Times for 16-May-2021
 Local
(UTC-5)
 Zulu
(UTC)
Morning civil twilight06:0011:00
Sunrise06:2611:26
Sunset20:0401:04
Evening civil twilight20:3001:30

Current date and time
Zulu (UTC)  17-May-2021 01:22:01
Local (UTC-5)  16-May-2021 20:22:01
 
METAR
KT41 
21nm W 
170055Z AUTO 16005KT 10SM BKN013 OVC020 23/23 A2994 RMK AO2 LTG DSNT S T02340231
KEFD 
26nm W 
170050Z 14002KT 7SM SCT020 BKN120 23/22 A2992 RMK OCNL LTG DSNT SE
KGLS 
26nm SW 
170052Z AUTO 15017KT 9SM -RA FEW045 25/23 A2993 RMK AO2 LTG DSNT SW SLP135 P0007 T02500228
KLVJ 
32nm W 
170053Z AUTO 16010KT 10SM FEW046 SCT080 BKN120 23/21 A2992 RMK AO2 LTG DSNT SE RAE50 SLP132 P0006 T02330211 $
KHOU 
32nm W 
170053Z VRB05KT 10SM FEW008 SCT011 BKN140 BKN250 24/22 A2992 RMK AO2 RAE05 SLP137 P0000 T02390217 $
KBMT 
34nm NE 
170055Z AUTO 13008KT 10SM SCT018 BKN045 OVC050 23/23 A2995 RMK AO2 LTG DSNT SW T02330226
KBPT 
37nm NE 
170053Z 13015G23KT 10SM -RA FEW016 BKN026 OVC040 24/23 A2994 RMK AO2 PK WND 13027/0000 SLP139 P0016 T02390228
TAF
KEFD 
26nm W 
162000Z 1620/1802 13009KT 8000 -SHRA BKN030 QNH2998INS TEMPO 1620/1700 14015G25KT 8000 -TSRA BKN020CB BECMG 1701/1702 16012KT 8000 -SHRA BKN020 QNH2987INS TEMPO 1709/1713 18020G30KT 9000 -TSRA OVC026CB BECMG 1713/1714 15009KT 9999 NSW BKN018 QNH2992INS TEMPO 1715/1802 VRB20G35KT 9000 -TSRA OVC018CB TX27/1719Z TN22/1711Z
KGLS 
26nm SW 
162155Z 1622/1718 14014KT P6SM VCSH SCT013 BKN030 OVC045 TEMPO 1622/1702 VRB15KT 2SM TSRA BKN017 OVC025CB FM170200 14014KT P6SM SCT015 SCT050 OVC100 FM170800 15016KT P6SM SCT015 BKN025 BKN090 FM171500 15014KT P6SM VCSH SCT025 BKN040
NOTAMs
Click for the latest NOTAMs
NOTAMs are issued by the DoD/FAA and will open in a separate window not controlled by AirNav.

 

 
 

Would you like to see your business listed on this page?

 If your business provides an interesting product or service to pilots, flight crews, aircraft, or users of the Eagle Air Airport, you should consider listing it here.  To start the listing process, click on the button below
 
Add a business
 

Other Pages about Eagle Air Airport

Update a link
 
Copyright © AirNav, LLC. All rights reserved. Privacy Policy  Contact